Time;durP1;ratioP1;P1;durP2;ratioP2;P2;SDS_P1;SDS_P2;PMS_P1;PMS_P2;Temp;Humidity;BMP_temperature;BMP_pressure;BME280_temperature;BME280_humidity;BME280_pressure;Samples;Min_cycle;Max_cycle;Signal;HPM_P1;HPM_P2
2021/09/21 00:00:14;;;;;;;;;;;;;;;22.05;54.33;101054.88;5013543;28;1646;-51
2021/09/21 00:02:40;;;;;;;;;;;;;;;22.08;54.47;101068.03;5012702;28;1511;-51
2021/09/21 00:05:07;;;;;;;;;;;;;;;21.96;53.63;101077.31;5013392;28;1770;-51
2021/09/21 00:07:33;;;;;;;;;;;;;;;21.91;54.48;101066.16;5009672;28;1910;-51
2021/09/21 00:10:01;;;;;;;;;;;;;;;22.02;54.08;101069.50;5013891;28;1179;-51
2021/09/21 00:12:28;;;;;;;;;;;;;;;22.05;54.68;101066.50;5013013;28;1458;-51
2021/09/21 00:14:54;;;;;;;;;;;;;;;21.99;54.51;101063.56;5012597;28;1763;-51
2021/09/21 00:17:21;;;;;;;;;;;;;;;21.97;54.00;101066.41;5012857;28;2574;-51
2021/09/21 00:19:47;;;;;;;;;;;;;;;21.95;53.77;101064.84;5012643;28;1879;-51
2021/09/21 00:22:14;;;;;;;;;;;;;;;21.91;54.32;101074.22;5011858;28;1536;-51
2021/09/21 00:24:40;;;;;;;;;;;;;;;22.04;53.67;101083.66;5013100;28;1668;-51
2021/09/21 00:27:08;;;;;;;;;;;;;;;22.11;53.69;101089.31;5013452;28;1513;-52
2021/09/21 00:29:34;;;;;;;;;;;;;;;22.02;54.03;101074.88;4996940;28;1985;-51
2021/09/21 00:32:01;;;;;;;;;;;;;;;22.01;53.91;101085.81;5010239;28;1699;-51
2021/09/21 00:34:37;;;;;;;;;;;;;;;22.05;54.51;101092.59;5013456;28;1635;-51
2021/09/21 00:37:03;;;;;;;;;;;;;;;21.98;53.29;101086.09;5011026;28;1574;-52
2021/09/21 00:39:30;;;;;;;;;;;;;;;22.02;53.76;101091.06;5013735;28;1128;-51
2021/09/21 00:41:57;;;;;;;;;;;;;;;21.98;54.07;101072.63;5012679;28;1382;-51
2021/09/21 00:44:25;;;;;;;;;;;;;;;22.08;54.10;101086.88;5012431;28;1463;-51
2021/09/21 00:46:51;;;;;;;;;;;;;;;22.09;53.86;101102.06;5012732;28;1698;-51
2021/09/21 00:49:18;;;;;;;;;;;;;;;22.09;53.99;101099.38;5013529;28;2028;-51
2021/09/21 00:51:45;;;;;;;;;;;;;;;22.05;52.94;101108.75;5011490;28;1561;-51
2021/09/21 00:54:11;;;;;;;;;;;;;;;22.05;53.30;101100.66;5012342;28;1790;-51
2021/09/21 00:56:38;;;;;;;;;;;;;;;22.06;53.33;101105.03;5012526;28;1972;-52
2021/09/21 00:59:04;;;;;;;;;;;;;;;22.12;53.16;101104.44;5012990;28;1910;-51
2021/09/21 01:01:32;;;;;;;;;;;;;;;22.12;53.58;101101.75;5012300;28;1454;-51
2021/09/21 01:04:00;;;;;;;;;;;;;;;22.04;53.41;101089.06;5011904;28;1976;-51
2021/09/21 01:06:26;;;;;;;;;;;;;;;22.08;53.06;101084.19;5012062;28;1678;-52
2021/09/21 01:08:54;;;;;;;;;;;;;;;22.10;53.17;101084.06;5011621;28;1983;-51
2021/09/21 01:11:20;;;;;;;;;;;;;;;22.02;53.44;101088.34;5011966;28;1746;-51
2021/09/21 01:13:46;;;;;;;;;;;;;;;22.07;53.00;101082.50;5013632;28;1075;-51
2021/09/21 01:16:13;;;;;;;;;;;;;;;22.07;53.13;101085.22;5013390;28;1051;-51
2021/09/21 01:18:41;;;;;;;;;;;;;;;22.05;53.30;101096.13;5012044;28;1854;-51
2021/09/21 01:21:09;;;;;;;;;;;;;;;22.10;53.30;101108.28;5010513;28;1588;-51
2021/09/21 01:23:46;;;;;;;;;;;;;;;22.06;53.41;101094.28;5012287;28;1790;-51
2021/09/21 01:26:12;;;;;;;;;;;;;;;21.98;53.15;101104.94;5011649;28;1746;-51
2021/09/21 01:28:39;;;;;;;;;;;;;;;21.89;52.99;101108.53;5011946;28;1910;-51
2021/09/21 01:31:05;;;;;;;;;;;;;;;21.83;52.44;101112.66;5012206;28;1430;-51
2021/09/21 01:33:32;;;;;;;;;;;;;;;21.91;52.85;101126.22;5013051;28;1007;-51
2021/09/21 01:35:58;;;;;;;;;;;;;;;21.85;52.97;101140.28;5011340;28;1704;-51
2021/09/21 01:38:25;;;;;;;;;;;;;;;21.91;53.25;101152.31;5012341;28;1794;-51
2021/09/21 01:40:53;;;;;;;;;;;;;;;21.95;52.87;101159.09;5013311;28;1068;-51
2021/09/21 01:43:19;;;;;;;;;;;;;;;21.82;52.36;101154.00;5011669;28;1619;-51
2021/09/21 01:45:46;;;;;;;;;;;;;;;21.94;52.84;101163.59;5011831;28;1975;-51
2021/09/21 01:48:12;;;;;;;;;;;;;;;21.94;52.96;101158.22;5011826;28;2245;-51
2021/09/21 01:50:45;;;;;;;;;;;;;;;21.92;52.91;101170.16;5010207;28;1702;-51
2021/09/21 01:53:18;;;;;;;;;;;;;;;21.85;53.03;101175.28;5002941;28;1628;-51
2021/09/21 01:58:47;;;;;;;;;;;;;;;21.87;52.53;101158.97;5011071;28;1593;-51
2021/09/21 02:01:17;;;;;;;;;;;;;;;21.91;52.29;101144.22;5107940;23;3800;-53
2021/09/21 02:03:43;;;;;;;;;;;;;;;21.93;52.73;101167.31;5051636;28;1855;-50
2021/09/21 02:06:11;;;;;;;;;;;;;;;21.75;52.97;101171.75;5054150;28;2010;-50
2021/09/21 02:08:53;;;;;;;;;;;;;;;21.67;52.94;101161.69;5054149;28;1902;-50
2021/09/21 02:14:15;;;;;;;;;;;;;;;21.81;52.57;101168.47;5048461;28;2512;-51
2021/09/21 02:16:47;;;;;;;;;;;;;;;21.84;52.90;101185.19;5054601;28;1396;-51
2021/09/21 02:19:14;;;;;;;;;;;;;;;21.72;54.01;101170.16;5052780;28;1488;-51
2021/09/21 02:21:42;;;;;;;;;;;;;;;21.74;54.20;101181.63;5053708;28;1426;-51
2021/09/21 02:24:09;;;;;;;;;;;;;;;21.76;53.63;101171.56;5053559;28;1991;-50
2021/09/21 02:26:44;;;;;;;;;;;;;;;21.78;54.44;101180.34;5053873;28;1749;-51
2021/09/21 02:29:11;;;;;;;;;;;;;;;21.80;53.96;101173.00;5053923;28;1910;-50
2021/09/21 02:31:41;;;;;;;;;;;;;;;21.79;53.89;101181.22;5054706;28;1441;-50
2021/09/21 02:34:12;;;;;;;;;;;;;;;21.70;54.77;101187.47;5054588;28;962;-50
2021/09/21 02:36:41;;;;;;;;;;;;;;;21.78;54.03;101190.28;5049508;28;1827;-51
2021/09/21 02:39:08;;;;;;;;;;;;;;;21.75;54.53;101194.13;5048805;28;1814;-51
2021/09/21 02:41:35;;;;;;;;;;;;;;;21.65;54.02;101198.66;5037817;28;1916;-51
2021/09/21 02:46:43;;;;;;;;;;;;;;;21.61;55.01;101200.78;5052947;28;2381;-51
2021/09/21 02:49:14;;;;;;;;;;;;;;;21.69;54.54;101212.69;5054400;28;1910;-53
2021/09/21 02:51:43;;;;;;;;;;;;;;;21.66;53.95;101216.50;5053726;28;1672;-50
2021/09/21 02:54:11;;;;;;;;;;;;;;;21.63;54.20;101212.25;5053200;28;1260;-50
2021/09/21 02:56:44;;;;;;;;;;;;;;;21.65;53.99;101221.03;5053289;28;1483;-51
2021/09/21 02:59:14;;;;;;;;;;;;;;;21.64;54.24;101231.94;5056910;28;2102;-51
2021/09/21 03:01:41;;;;;;;;;;;;;;;21.63;53.93;101214.94;5052908;28;1692;-50
2021/09/21 03:04:14;;;;;;;;;;;;;;;21.58;54.20;101232.50;5054427;28;1054;-50
2021/09/21 03:06:49;;;;;;;;;;;;;;;21.68;54.24;101241.44;5054280;28;1064;-51
2021/09/21 03:09:21;;;;;;;;;;;;;;;21.59;54.04;101255.75;5053352;28;1981;-50
2021/09/21 03:11:58;;;;;;;;;;;;;;;21.64;54.69;101248.09;5053527;28;2064;-50
2021/09/21 03:17:26;;;;;;;;;;;;;;;21.56;54.86;101272.16;5053047;28;1714;-50
2021/09/21 03:19:53;;;;;;;;;;;;;;;21.56;54.99;101247.94;5049866;28;1668;-51
2021/09/21 03:22:23;;;;;;;;;;;;;;;21.56;55.00;101266.78;5051288;28;1830;-50
2021/09/21 03:24:49;;;;;;;;;;;;;;;21.58;55.46;101278.25;5050229;28;1577;-50
2021/09/21 03:27:19;;;;;;;;;;;;;;;21.52;54.68;101258.13;5053656;28;1143;-50
2021/09/21 03:29:49;;;;;;;;;;;;;;;21.54;54.62;101252.63;5053210;28;1906;-51
2021/09/21 03:32:16;;;;;;;;;;;;;;;21.45;55.66;101263.25;5053599;28;1428;-50
2021/09/21 03:34:43;;;;;;;;;;;;;;;21.53;55.94;101259.00;5052455;28;1819;-51
2021/09/21 03:37:13;;;;;;;;;;;;;;;21.52;55.74;101281.53;5051003;28;1427;-51
2021/09/21 03:39:45;;;;;;;;;;;;;;;21.55;54.71;101270.50;5047074;28;1458;-50
2021/09/21 03:42:15;;;;;;;;;;;;;;;21.41;56.06;101279.78;5052392;28;1411;-51
2021/09/21 03:44:45;;;;;;;;;;;;;;;21.25;55.86;101277.63;5046953;28;1430;-51
2021/09/21 03:47:13;;;;;;;;;;;;;;;21.29;54.28;101276.34;5052847;28;1103;-51
2021/09/21 03:49:41;;;;;;;;;;;;;;;21.23;54.12;101284.97;5043411;28;1910;-50
2021/09/21 03:52:08;;;;;;;;;;;;;;;21.21;54.70;101281.56;5045351;28;1349;-51
2021/09/21 03:54:35;;;;;;;;;;;;;;;21.12;54.61;101303.91;5048429;28;1555;-54
2021/09/21 03:57:17;;;;;;;;;;;;;;;21.08;54.24;101292.56;5050042;28;1614;-51
2021/09/21 03:59:45;;;;;;;;;;;;;;;21.10;54.76;101287.06;5048266;28;1496;-51
2021/09/21 04:02:11;;;;;;;;;;;;;;;21.16;55.18;101310.72;5048778;28;1583;-51
2021/09/21 04:04:41;;;;;;;;;;;;;;;21.18;55.06;101316.81;5036146;28;1598;-51
2021/09/21 04:07:09;;;;;;;;;;;;;;;21.12;54.61;101317.34;5051566;28;1473;-50
2021/09/21 04:09:39;;;;;;;;;;;;;;;21.06;53.86;101324.13;5047492;28;1996;-52
2021/09/21 04:12:22;;;;;;;;;;;;;;;21.09;53.82;101315.78;5043277;28;1649;-51
2021/09/21 04:15:05;;;;;;;;;;;;;;;21.08;54.37;101337.44;5044804;28;1629;-50
2021/09/21 04:17:38;;;;;;;;;;;;;;;20.99;53.75;101326.50;5045311;28;1889;-51
2021/09/21 04:20:06;;;;;;;;;;;;;;;21.02;53.46;101330.75;5043814;28;1397;-50
2021/09/21 04:22:33;;;;;;;;;;;;;;;21.02;53.80;101318.16;5051445;28;1705;-50
2021/09/21 04:25:00;;;;;;;;;;;;;;;20.94;53.58;101327.91;5044028;28;1530;-50
2021/09/21 04:27:28;;;;;;;;;;;;;;;20.92;54.27;101316.41;5046856;28;1565;-51
2021/09/21 04:30:00;;;;;;;;;;;;;;;20.93;53.36;101327.06;5049092;28;1977;-50
2021/09/21 04:32:31;;;;;;;;;;;;;;;20.94;53.59;101339.50;5052220;28;1495;-51
2021/09/21 04:35:00;;;;;;;;;;;;;;;20.97;52.95;101338.38;5048390;28;1925;-50
2021/09/21 04:40:08;;;;;;;;;;;;;;;20.89;53.51;101349.81;5046739;28;2282;-51
2021/09/21 04:42:35;;;;;;;;;;;;;;;20.89;53.48;101357.00;5048783;28;1421;-51
2021/09/21 04:47:43;;;;;;;;;;;;;;;20.82;53.12;101359.38;5050716;28;2222;-51
2021/09/21 04:50:14;;;;;;;;;;;;;;;20.82;53.87;101362.06;5049055;28;1941;-50
2021/09/21 04:52:51;;;;;;;;;;;;;;;20.84;52.66;101368.16;5046752;28;1367;-51
2021/09/21 04:55:18;;;;;;;;;;;;;;;20.91;52.69;101382.78;5050657;28;1529;-50
2021/09/21 04:58:06;;;;;;;;;;;;;;;20.84;52.64;101378.91;5041220;28;1538;-51
2021/09/21 05:00:43;;;;;;;;;;;;;;;20.90;53.31;101383.75;5045802;28;1671;-51
2021/09/21 05:03:10;;;;;;;;;;;;;;;20.84;53.32;101377.06;5050232;28;1873;-50
2021/09/21 05:05:39;;;;;;;;;;;;;;;20.85;53.16;101386.00;5048963;28;1689;-50
2021/09/21 05:08:09;;;;;;;;;;;;;;;20.81;53.75;101363.03;5049484;28;1569;-50
2021/09/21 05:10:36;;;;;;;;;;;;;;;20.82;53.28;101386.25;5040836;28;2260;-50
2021/09/21 05:13:02;;;;;;;;;;;;;;;20.74;53.36;101389.63;5041464;28;1647;-51
2021/09/21 05:15:36;;;;;;;;;;;;;;;20.74;52.96;101399.50;5038423;28;1967;-50
2021/09/21 05:18:05;;;;;;;;;;;;;;;20.75;53.59;101395.81;5044984;28;1589;-50
2021/09/21 05:20:32;;;;;;;;;;;;;;;20.73;52.98;101404.03;5050953;28;1728;-50
2021/09/21 05:23:16;;;;;;;;;;;;;;;20.72;54.03;101410.41;5049138;28;1908;-50
2021/09/21 05:25:44;;;;;;;;;;;;;;;20.82;54.75;101418.53;5039719;28;1588;-51
2021/09/21 05:28:11;;;;;;;;;;;;;;;20.82;54.22;101410.47;5050067;28;1599;-50
2021/09/21 05:30:41;;;;;;;;;;;;;;;20.79;53.66;101424.16;5044943;28;2766;-49
2021/09/21 05:33:15;;;;;;;;;;;;;;;20.83;55.02;101409.47;5035907;28;1359;-46
2021/09/21 05:35:43;;;;;;;;;;;;;;;20.44;54.99;101417.22;5047070;28;1783;-49
2021/09/21 05:38:17;;;;;;;;;;;;;;;20.63;54.43;101412.03;5044391;28;1395;-51
2021/09/21 05:40:46;;;;;;;;;;;;;;;20.94;54.68;101414.78;5041742;28;1531;-45
2021/09/21 05:43:13;;;;;;;;;;;;;;;20.73;54.92;101427.38;5045403;28;1361;-55
2021/09/21 05:45:42;;;;;;;;;;;;;;;20.82;54.57;101423.91;5041133;28;1545;-51
2021/09/21 05:48:12;;;;;;;;;;;;;;;20.82;54.46;101418.53;5046046;28;1408;-51
2021/09/21 05:50:41;;;;;;;;;;;;;;;20.86;54.22;101430.72;5043235;28;2026;-50
2021/09/21 05:53:09;;;;;;;;;;;;;;;20.94;54.32;101432.75;5041105;28;1419;-51
2021/09/21 05:55:36;;;;;;;;;;;;;;;20.98;54.45;101423.44;5045901;28;1388;-48
2021/09/21 05:58:04;;;;;;;;;;;;;;;20.93;54.78;101426.53;5052250;28;1028;-49
2021/09/21 06:00:32;;;;;;;;;;;;;;;20.96;54.16;101415.50;5049096;28;1764;-51
2021/09/21 06:03:02;;;;;;;;;;;;;;;20.91;54.42;101407.00;5048468;28;1439;-50
2021/09/21 06:05:30;;;;;;;;;;;;;;;20.80;54.49;101442.84;5049373;28;1497;-49
2021/09/21 06:07:57;;;;;;;;;;;;;;;20.90;54.32;101434.84;5052653;28;1540;-49
2021/09/21 06:10:28;;;;;;;;;;;;;;;20.82;54.73;101445.41;5052306;28;1883;-47
2021/09/21 06:13:02;;;;;;;;;;;;;;;20.95;54.13;101451.44;5035974;28;1792;-47
2021/09/21 06:15:30;;;;;;;;;;;;;;;21.01;54.56;101455.44;5052366;28;1497;-47
2021/09/21 06:17:58;;;;;;;;;;;;;;;21.01;53.64;101456.28;5052679;28;1421;-45
2021/09/21 06:20:27;;;;;;;;;;;;;;;20.85;55.10;101454.06;5053484;28;1536;-44
2021/09/21 06:22:53;;;;;;;;;;;;;;;20.96;53.88;101453.13;5051123;28;1678;-45
2021/09/21 06:25:22;;;;;;;;;;;;;;;20.93;53.86;101448.03;5047191;28;1476;-45
2021/09/21 06:27:49;;;;;;;;;;;;;;;20.93;54.05;101453.41;5052051;28;1626;-46
2021/09/21 06:30:20;;;;;;;;;;;;;;;20.92;54.79;101462.44;5052354;28;1902;-45
2021/09/21 06:32:54;;;;;;;;;;;;;;;20.77;54.40;101474.50;5047436;28;1414;-45
2021/09/21 06:35:21;;;;;;;;;;;;;;;20.92;53.73;101467.81;5047909;28;1729;-45
2021/09/21 06:37:48;;;;;;;;;;;;;;;20.99;53.84;101466.31;5053091;28;1651;-45
2021/09/21 06:40:15;;;;;;;;;;;;;;;21.22;53.65;101474.25;5050111;28;1379;-45
2021/09/21 06:42:42;;;;;;;;;;;;;;;21.67;54.32;101470.38;5048307;28;1499;-45
2021/09/21 06:45:22;;;;;;;;;;;;;;;21.81;54.29;101472.69;5044586;28;1681;-46
2021/09/21 06:47:54;;;;;;;;;;;;;;;21.89;54.13;101477.41;5046026;28;1580;-45
2021/09/21 06:50:21;;;;;;;;;;;;;;;22.01;54.38;101470.91;5054930;28;1913;-45
2021/09/21 06:52:47;;;;;;;;;;;;;;;22.26;53.40;101474.09;5052412;28;1625;-45
2021/09/21 06:55:23;;;;;;;;;;;;;;;22.30;53.07;101481.75;5048103;28;1544;-45
2021/09/21 06:57:58;;;;;;;;;;;;;;;22.30;52.51;101480.91;5040834;28;1332;-46
2021/09/21 07:00:25;;;;;;;;;;;;;;;22.36;53.07;101486.59;5035450;28;1325;-45
2021/09/21 07:02:54;;;;;;;;;;;;;;;22.32;53.19;101478.91;5051298;28;1751;-45
2021/09/21 07:05:24;;;;;;;;;;;;;;;22.40;52.99;101488.03;5054603;28;1561;-44
2021/09/21 07:07:53;;;;;;;;;;;;;;;22.42;53.06;101482.47;5054343;28;1556;-47
2021/09/21 07:10:23;;;;;;;;;;;;;;;22.44;53.08;101483.19;5055009;28;1973;-47
2021/09/21 07:12:54;;;;;;;;;;;;;;;22.43;52.88;101493.13;5054062;28;1718;-49
2021/09/21 07:15:25;;;;;;;;;;;;;;;22.46;52.58;101486.59;5050883;28;1605;-47
2021/09/21 07:17:55;;;;;;;;;;;;;;;22.01;53.32;101508.63;5046737;28;1726;-48
2021/09/21 07:20:27;;;;;;;;;;;;;;;22.06;54.68;101514.41;5055581;28;1593;-48
2021/09/21 07:22:56;;;;;;;;;;;;;;;22.39;54.27;101507.88;5050950;28;1727;-46
2021/09/21 07:25:23;;;;;;;;;;;;;;;22.40;54.16;101509.59;5054443;28;1483;-47
2021/09/21 07:27:52;;;;;;;;;;;;;;;22.33;54.15;101518.38;5041637;28;1721;-47
2021/09/21 07:30:19;;;;;;;;;;;;;;;22.52;53.98;101521.09;5052863;28;1972;-47
2021/09/21 07:32:47;;;;;;;;;;;;;;;22.60;54.04;101532.00;5054960;28;1647;-47
2021/09/21 07:35:16;;;;;;;;;;;;;;;22.61;54.58;101517.53;5050128;28;2388;-48
2021/09/21 07:37:47;;;;;;;;;;;;;;;22.72;54.58;101532.72;5048840;28;1617;-48
2021/09/21 07:40:13;;;;;;;;;;;;;;;22.67;54.67;101526.06;5042935;28;1682;-48
2021/09/21 07:42:40;;;;;;;;;;;;;;;22.73;54.85;101531.72;5048490;28;1694;-48
2021/09/21 07:45:10;;;;;;;;;;;;;;;22.66;53.66;101540.50;5053275;28;1682;-48
2021/09/21 07:47:40;;;;;;;;;;;;;;;22.32;55.00;101538.19;5052901;28;1897;-48
2021/09/21 07:50:11;;;;;;;;;;;;;;;22.58;55.65;101534.00;5051807;28;1967;-48
2021/09/21 07:52:40;;;;;;;;;;;;;;;22.70;55.41;101545.50;5042841;28;1530;-47
2021/09/21 07:55:10;;;;;;;;;;;;;;;22.76;55.58;101538.66;5046081;28;1834;-46
2021/09/21 07:57:40;;;;;;;;;;;;;;;22.68;55.47;101543.91;5044682;28;1678;-46
2021/09/21 08:00:08;;;;;;;;;;;;;;;22.73;55.16;101537.13;5039499;28;1731;-46
2021/09/21 08:02:38;;;;;;;;;;;;;;;22.80;55.41;101540.09;5051350;28;1709;-46
2021/09/21 08:05:06;;;;;;;;;;;;;;;22.78;55.76;101542.06;5047702;28;1504;-47
2021/09/21 08:07:35;;;;;;;;;;;;;;;22.80;55.62;101542.78;5053131;28;2090;-46
2021/09/21 08:10:02;;;;;;;;;;;;;;;22.81;55.12;101548.03;5050572;28;1977;-46
2021/09/21 08:12:32;;;;;;;;;;;;;;;22.84;55.45;101555.03;5044640;28;1533;-46
2021/09/21 08:15:01;;;;;;;;;;;;;;;22.80;55.26;101549.06;5046452;28;1321;-46
2021/09/21 08:17:30;;;;;;;;;;;;;;;22.80;55.39;101558.97;5050405;28;1493;-46
2021/09/21 08:19:58;;;;;;;;;;;;;;;22.80;55.32;101554.44;5038904;28;2127;-46
2021/09/21 08:22:25;;;;;;;;;;;;;;;22.81;55.33;101549.91;5053588;28;1808;-46
2021/09/21 08:24:53;;;;;;;;;;;;;;;22.81;55.41;101552.59;5054008;28;1583;-47
2021/09/21 08:30:01;;;;;;;;;;;;;;;22.84;55.26;101557.72;5047198;28;2448;-47
2021/09/21 08:32:32;;;;;;;;;;;;;;;22.86;55.28;101546.75;5048146;28;1159;-46
2021/09/21 08:35:00;;;;;;;;;;;;;;;22.87;55.22;101549.31;5043448;28;1414;-46
2021/09/21 08:37:30;;;;;;;;;;;;;;;22.84;55.05;101533.44;5053178;28;1544;-46
2021/09/21 08:40:00;;;;;;;;;;;;;;;22.87;55.07;101538.53;5047835;28;1222;-47
2021/09/21 08:42:30;;;;;;;;;;;;;;;22.88;55.04;101540.25;5044008;28;1585;-46
2021/09/21 08:44:59;;;;;;;;;;;;;;;22.87;55.00;101535.84;5045071;28;1591;-47
2021/09/21 08:47:30;;;;;;;;;;;;;;;22.90;55.21;101546.34;5052493;28;1516;-46
2021/09/21 08:49:56;;;;;;;;;;;;;;;22.90;55.18;101540.97;5054082;28;1846;-46
2021/09/21 08:52:24;;;;;;;;;;;;;;;22.91;54.99;101545.34;5059282;28;1969;-46
2021/09/21 08:54:51;;;;;;;;;;;;;;;22.96;55.23;101553.88;5030483;28;1630;-46
2021/09/21 08:57:20;;;;;;;;;;;;;;;22.97;55.04;101543.94;5052012;28;1547;-46
2021/09/21 08:59:51;;;;;;;;;;;;;;;22.95;55.02;101549.47;5048537;28;1632;-46
2021/09/21 09:02:23;;;;;;;;;;;;;;;22.96;55.09;101545.78;5048142;28;1904;-46
2021/09/21 09:05:03;;;;;;;;;;;;;;;23.00;55.14;101560.69;5043713;28;1772;-47
2021/09/21 09:07:36;;;;;;;;;;;;;;;22.98;54.96;101551.88;5053909;28;1578;-46
2021/09/21 09:10:19;;;;;;;;;;;;;;;22.98;54.93;101554.59;5054937;28;993;-46
2021/09/21 09:12:46;;;;;;;;;;;;;;;23.00;55.04;101559.84;5056556;28;1922;-46
2021/09/21 09:15:29;;;;;;;;;;;;;;;22.96;54.96;101556.56;5056406;28;1817;-47
2021/09/21 09:18:00;;;;;;;;;;;;;;;23.02;55.16;101563.28;5049226;28;1555;-47
2021/09/21 09:20:39;;;;;;;;;;;;;;;23.04;55.36;101561.28;5051921;28;1488;-46
2021/09/21 09:23:21;;;;;;;;;;;;;;;22.99;55.18;101561.66;5054016;28;1677;-46
2021/09/21 09:25:51;;;;;;;;;;;;;;;22.99;54.93;101556.28;5053118;28;1555;-46
2021/09/21 09:28:21;;;;;;;;;;;;;;;23.00;55.37;101587.66;5056575;28;1542;-46
2021/09/21 09:30:52;;;;;;;;;;;;;;;23.05;55.43;101578.31;5043260;28;1995;-47
2021/09/21 09:33:19;;;;;;;;;;;;;;;23.02;55.34;101576.78;5057578;28;1073;-46
2021/09/21 09:35:50;;;;;;;;;;;;;;;23.10;55.23;101586.81;5060021;28;2060;-45
2021/09/21 09:38:18;;;;;;;;;;;;;;;23.00;55.75;101566.09;5055837;28;1830;-46
2021/09/21 09:40:58;;;;;;;;;;;;;;;22.96;55.69;101575.47;5057160;28;1922;-47
2021/09/21 09:43:25;;;;;;;;;;;;;;;22.96;55.90;101569.19;5059017;28;1635;-46
2021/09/21 09:46:01;;;;;;;;;;;;;;;22.90;54.90;101596.72;5055981;28;1679;-46
2021/09/21 09:48:27;;;;;;;;;;;;;;;22.78;54.48;101577.13;5043871;28;1911;-46
2021/09/21 09:51:02;;;;;;;;;;;;;;;22.82;54.69;101578.59;5055594;28;1989;-46
2021/09/21 09:53:32;;;;;;;;;;;;;;;22.91;55.32;101579.56;5052991;28;1886;-46
2021/09/21 09:55:59;;;;;;;;;;;;;;;22.98;55.12;101572.63;5056922;28;1944;-46
2021/09/21 09:58:29;;;;;;;;;;;;;;;23.02;54.89;101580.31;5055681;28;1595;-46
2021/09/21 10:00:58;;;;;;;;;;;;;;;22.99;55.17;101579.72;5049764;28;2129;-46
2021/09/21 10:03:30;;;;;;;;;;;;;;;23.01;54.83;101577.72;5047119;28;1541;-46
2021/09/21 10:05:58;;;;;;;;;;;;;;;23.03;54.82;101573.91;5054476;28;1581;-46
2021/09/21 10:20:34;;;;;;;;;;;;;;;23.07;54.99;101566.38;5066076;27;1570;-47
2021/09/21 10:23:01;;;;;;;;;;;;;;;23.12;54.85;101574.03;5042686;28;1124;-46
2021/09/21 10:25:29;;;;;;;;;;;;;;;23.10;54.79;101570.63;5043587;28;1640;-46
2021/09/21 10:27:56;;;;;;;;;;;;;;;23.08;54.98;101572.63;5040811;28;1910;-47
2021/09/21 10:30:24;;;;;;;;;;;;;;;23.10;54.94;101570.63;5043300;28;1491;-46
2021/09/21 10:32:51;;;;;;;;;;;;;;;23.10;54.87;101566.13;5044638;28;1530;-47
2021/09/21 10:35:20;;;;;;;;;;;;;;;23.09;54.86;101563.56;5043218;28;1470;-47
2021/09/21 10:37:58;;;;;;;;;;;;;;;23.12;54.55;101565.94;5043074;28;1190;-46
2021/09/21 10:40:33;;;;;;;;;;;;;;;23.12;54.73;101574.03;5043311;28;1769;-47
2021/09/21 10:43:00;;;;;;;;;;;;;;;23.13;54.84;101571.22;5042159;28;1542;-46
2021/09/21 10:45:27;;;;;;;;;;;;;;;23.09;54.72;101558.16;5041197;28;1501;-46
2021/09/21 10:48:00;;;;;;;;;;;;;;;23.14;54.47;101550.47;5042245;28;1906;-46
2021/09/21 10:50:26;;;;;;;;;;;;;;;23.13;54.51;101559.56;5041828;28;1554;-46
2021/09/21 10:53:04;;;;;;;;;;;;;;;23.14;54.55;101558.56;5045279;28;1365;-47
2021/09/21 10:55:34;;;;;;;;;;;;;;;23.16;54.50;101570.09;5042641;28;1507;-50
2021/09/21 10:58:03;;;;;;;;;;;;;;;23.15;54.32;101557.59;5041391;28;1472;-47
2021/09/21 11:00:31;;;;;;;;;;;;;;;23.20;54.49;101566.09;5039079;28;1670;-46
2021/09/21 11:02:57;;;;;;;;;;;;;;;23.17;54.32;101567.22;5039026;28;1565;-49
2021/09/21 11:05:26;;;;;;;;;;;;;;;23.18;54.82;101571.63;5036094;28;1756;-46
2021/09/21 11:07:54;;;;;;;;;;;;;;;23.20;54.40;101576.91;5048258;28;1963;-46
2021/09/21 11:10:22;;;;;;;;;;;;;;;23.18;54.47;101566.25;5043101;28;1958;-50
2021/09/21 11:12:49;;;;;;;;;;;;;;;23.19;55.03;101570.63;5038387;28;1947;-50
2021/09/21 11:15:16;;;;;;;;;;;;;;;23.17;55.18;101590.66;5035454;28;1814;-52
2021/09/21 11:17:43;;;;;;;;;;;;;;;23.20;55.13;101561.56;5039384;28;1704;-49
2021/09/21 11:20:10;;;;;;;;;;;;;;;23.18;55.29;101568.09;5034204;28;1696;-50
2021/09/21 11:22:37;;;;;;;;;;;;;;;23.21;55.26;101567.78;5023974;28;1603;-47
2021/09/21 11:25:05;;;;;;;;;;;;;;;23.22;55.35;101558.72;5024376;28;1443;-51
2021/09/21 11:27:33;;;;;;;;;;;;;;;23.23;54.95;101544.22;5021603;28;1829;-51
2021/09/21 11:30:00;;;;;;;;;;;;;;;23.29;54.48;101557.13;5028906;28;1910;-50
2021/09/21 11:32:27;;;;;;;;;;;;;;;23.24;54.67;101545.94;5026119;28;2242;-51
2021/09/21 11:34:58;;;;;;;;;;;;;;;23.25;53.90;101555.72;5023909;28;1712;-50
2021/09/21 11:37:25;;;;;;;;;;;;;;;23.21;53.78;101546.22;5023290;28;1104;-50
2021/09/21 11:39:52;;;;;;;;;;;;;;;23.22;54.05;101554.16;5027320;28;1500;-50
2021/09/21 11:42:21;;;;;;;;;;;;;;;23.23;54.17;101560.41;5027573;28;1572;-51
2021/09/21 11:44:49;;;;;;;;;;;;;;;23.19;54.05;101548.19;5027560;28;1503;-51
2021/09/21 11:47:16;;;;;;;;;;;;;;;23.22;53.88;101564.13;5027552;28;1608;-50
2021/09/21 11:49:51;;;;;;;;;;;;;;;23.15;53.60;101547.63;5020712;28;1895;-50
2021/09/21 11:52:18;;;;;;;;;;;;;;;23.18;53.85;101568.94;5023759;28;1216;-50
2021/09/21 11:54:44;;;;;;;;;;;;;;;23.13;53.71;101554.16;5027812;28;1448;-50
2021/09/21 11:57:11;;;;;;;;;;;;;;;23.18;54.19;101563.53;5028602;28;1648;-50
2021/09/21 11:59:38;;;;;;;;;;;;;;;23.16;53.45;101556.59;5028788;28;1583;-51
2021/09/21 12:02:06;;;;;;;;;;;;;;;23.17;53.28;101552.88;5028034;28;1706;-50
2021/09/21 12:04:33;;;;;;;;;;;;;;;23.21;53.83;101557.84;5026195;28;1564;-50
2021/09/21 12:06:59;;;;;;;;;;;;;;;23.23;53.84;101533.41;5029830;28;1282;-50
2021/09/21 12:09:26;;;;;;;;;;;;;;;23.16;53.56;101537.72;5029558;28;1911;-50
2021/09/21 12:11:53;;;;;;;;;;;;;;;23.21;53.45;101535.41;5022458;28;1612;-50
2021/09/21 12:14:19;;;;;;;;;;;;;;;23.25;53.44;101541.38;5028441;28;1598;-51
2021/09/21 12:16:52;;;;;;;;;;;;;;;23.25;53.25;101526.03;5028855;28;1806;-50
2021/09/21 12:19:20;;;;;;;;;;;;;;;23.28;53.38;101522.19;5030027;28;1679;-52
2021/09/21 12:21:47;;;;;;;;;;;;;;;23.34;53.55;101524.31;5022772;28;1392;-50
2021/09/21 12:24:13;;;;;;;;;;;;;;;23.32;54.45;101532.56;5029808;28;1671;-50
2021/09/21 12:26:40;;;;;;;;;;;;;;;23.30;53.97;101525.59;5028596;28;1676;-50
2021/09/21 12:29:08;;;;;;;;;;;;;;;23.35;53.74;101521.47;5028120;28;1971;-51
2021/09/21 12:31:36;;;;;;;;;;;;;;;23.35;55.75;101521.47;5021275;28;1612;-51
2021/09/21 12:34:08;;;;;;;;;;;;;;;23.35;54.40;101516.06;5024816;28;1077;-50
2021/09/21 12:36:42;;;;;;;;;;;;;;;23.36;53.41;101516.94;5024451;28;1268;-50
2021/09/21 12:39:11;;;;;;;;;;;;;;;23.31;54.26;101525.44;5027180;28;1495;-50
2021/09/21 12:41:39;;;;;;;;;;;;;;;23.30;53.59;101518.38;5029319;28;1590;-51
2021/09/21 12:44:07;;;;;;;;;;;;;;;23.28;52.82;101509.56;5021438;28;1529;-51
2021/09/21 12:46:34;;;;;;;;;;;;;;;23.28;53.43;101524.88;5024443;28;1670;-51
2021/09/21 12:49:01;;;;;;;;;;;;;;;23.25;53.19;101525.19;5023047;28;1906;-50
2021/09/21 12:51:32;;;;;;;;;;;;;;;23.23;53.24;101495.66;5018674;28;1911;-51
2021/09/21 12:54:00;;;;;;;;;;;;;;;23.23;53.21;101501.03;5025136;28;1598;-50
2021/09/21 12:56:27;;;;;;;;;;;;;;;23.25;53.15;101493.66;5022960;28;1507;-50
2021/09/21 12:59:02;;;;;;;;;;;;;;;23.21;53.24;101476.91;5017683;28;2258;-50
2021/09/21 13:01:29;;;;;;;;;;;;;;;23.31;53.49;101486.81;5021923;28;1780;-53
2021/09/21 13:03:55;;;;;;;;;;;;;;;23.32;52.98;101488.53;5022302;28;1083;-50
2021/09/21 13:06:22;;;;;;;;;;;;;;;23.16;51.52;101489.16;5024055;28;2311;-50
2021/09/21 13:08:49;;;;;;;;;;;;;;;23.12;52.36;101466.13;5029943;28;1898;-50
2021/09/21 13:11:17;;;;;;;;;;;;;;;22.32;51.64;101484.31;5022638;28;1617;-49
2021/09/21 13:13:43;;;;;;;;;;;;;;;22.54;52.11;101467.88;5022098;28;1533;-51
2021/09/21 13:16:10;;;;;;;;;;;;;;;21.85;51.98;101455.28;5021472;28;1076;-50
2021/09/21 13:18:38;;;;;;;;;;;;;;;22.44;52.91;101461.63;5020823;28;1593;-51
2021/09/21 13:21:04;;;;;;;;;;;;;;;22.76;51.37;101460.47;5021691;28;1830;-50
2021/09/21 13:23:31;;;;;;;;;;;;;;;22.71;51.20;101465.47;5031133;28;1714;-51
2021/09/21 13:25:57;;;;;;;;;;;;;;;22.71;50.75;101454.69;5021856;28;1228;-51
2021/09/21 13:28:26;;;;;;;;;;;;;;;22.71;50.95;101462.75;5020347;28;1563;-50